createdAt,value
2023-04-15T00:02:21.105Z,5.76
2023-04-15T00:05:22.801Z,5.86
2023-04-15T00:08:24.518Z,6.03
2023-04-15T00:11:26.179Z,5.96
2023-04-15T00:14:28.203Z,6.26
2023-04-15T00:17:30.246Z,6.24
2023-04-15T00:20:32.376Z,5.89
2023-04-15T00:23:33.986Z,5.39
2023-04-15T00:26:35.820Z,5.53
2023-04-15T00:29:37.468Z,5.39
2023-04-15T00:32:39.110Z,5.46
2023-04-15T00:35:40.775Z,5.33
2023-04-15T00:38:42.631Z,5.47
2023-04-15T00:41:45.652Z,5.43
2023-04-15T00:44:47.402Z,5.39
2023-04-15T00:47:49.755Z,5.40
2023-04-15T00:50:52.010Z,5.25
2023-04-15T00:53:53.639Z,5.24
2023-04-15T00:56:55.273Z,5.25
2023-04-15T00:59:58.111Z,5.22
2023-04-15T01:03:00.037Z,5.52
2023-04-15T01:06:03.895Z,5.54
2023-04-15T01:09:06.354Z,5.37
2023-04-15T01:12:12.114Z,5.62
2023-04-15T01:15:13.759Z,5.76
2023-04-15T01:18:15.950Z,5.82
2023-04-15T01:21:18.235Z,5.85
2023-04-15T01:24:20.221Z,5.60
2023-04-15T01:27:22.610Z,5.35
2023-04-15T01:30:24.559Z,5.22
2023-04-15T01:33:26.312Z,5.33
2023-04-15T01:36:28.305Z,5.20
2023-04-15T01:39:29.917Z,5.30
2023-04-15T01:42:31.561Z,5.35
2023-04-15T01:45:33.276Z,5.28
2023-04-15T01:48:34.902Z,5.21
2023-04-15T01:51:36.522Z,5.17
2023-04-15T01:54:38.136Z,5.20
2023-04-15T01:57:40.122Z,5.17
2023-04-15T02:00:41.822Z,5.15
2023-04-15T02:03:43.567Z,5.36
2023-04-15T02:06:46.156Z,5.13
2023-04-15T02:09:47.907Z,5.04
2023-04-15T02:12:49.560Z,5.04
2023-04-15T02:15:52.650Z,5.00
2023-04-15T02:18:54.269Z,5.32
2023-04-15T02:21:55.932Z,5.63
2023-04-15T02:24:57.630Z,5.78
2023-04-15T02:27:59.292Z,5.70
2023-04-15T02:31:02.311Z,5.23
2023-04-15T02:34:04.747Z,5.52
2023-04-15T02:37:06.791Z,5.61
2023-04-15T02:40:12.172Z,5.56
2023-04-15T02:43:13.820Z,5.65
2023-04-15T02:46:15.445Z,5.45
2023-04-15T02:49:17.194Z,5.08
2023-04-15T02:52:18.871Z,4.78
2023-04-15T02:55:20.636Z,5.09
2023-04-15T02:58:22.724Z,5.07
2023-04-15T03:01:24.416Z,5.04
2023-04-15T03:04:26.180Z,5.27
2023-04-15T03:07:27.775Z,4.85
2023-04-15T03:10:29.461Z,5.06
2023-04-15T03:13:31.351Z,5.39
2023-04-15T03:16:33.237Z,5.43
2023-04-15T03:19:34.867Z,5.30
2023-04-15T03:22:36.532Z,5.52
2023-04-15T03:25:38.182Z,5.50
2023-04-15T03:28:39.750Z,5.40
2023-04-15T03:31:41.836Z,5.46
2023-04-15T03:34:43.701Z,5.39
2023-04-15T03:37:45.348Z,5.29
2023-04-15T03:40:47.207Z,5.28
2023-04-15T03:43:48.800Z,5.23
2023-04-15T03:46:50.967Z,5.29
2023-04-15T03:49:53.828Z,5.07
2023-04-15T03:52:55.652Z,5.10
2023-04-15T03:55:57.365Z,5.11
2023-04-15T03:58:59.185Z,5.08
2023-04-15T04:02:01.007Z,5.09
2023-04-15T04:05:02.784Z,4.82
2023-04-15T04:08:04.901Z,4.13
2023-04-15T04:11:06.706Z,3.84
2023-04-15T04:14:08.372Z,3.77
2023-04-15T04:17:10.072Z,3.95
2023-04-15T04:20:12.463Z,3.92
2023-04-15T04:23:14.209Z,4.00
2023-04-15T04:26:16.318Z,4.16
2023-04-15T04:29:17.983Z,4.71
2023-04-15T04:32:19.642Z,5.05
2023-04-15T04:35:22.019Z,4.88
2023-04-15T04:38:23.701Z,4.36
2023-04-15T04:41:25.550Z,4.22
2023-04-15T04:44:27.461Z,4.52
2023-04-15T04:47:30.210Z,4.34
2023-04-15T04:50:32.363Z,4.38
2023-04-15T04:53:34.167Z,4.36
2023-04-15T04:56:35.774Z,4.28
2023-04-15T04:59:38.111Z,4.15
2023-04-15T05:02:39.983Z,4.32
2023-04-15T05:05:41.757Z,4.38
2023-04-15T05:08:43.422Z,4.35
2023-04-15T05:11:45.049Z,4.48
2023-04-15T05:14:46.901Z,4.55
2023-04-15T05:17:48.545Z,4.60
2023-04-15T05:20:50.365Z,4.59
2023-04-15T05:23:52.309Z,4.85
2023-04-15T05:26:54.097Z,4.91
2023-04-15T05:29:56.713Z,5.08
2023-04-15T05:32:58.466Z,5.11
2023-04-15T05:36:00.132Z,5.28
2023-04-15T05:39:02.239Z,5.66
2023-04-15T05:42:06.018Z,5.99
2023-04-15T05:45:09.373Z,6.14
2023-04-15T05:48:11.032Z,6.52
2023-04-15T05:51:12.714Z,6.63
2023-04-15T05:54:14.347Z,6.62
2023-04-15T05:57:16.209Z,6.65
2023-04-15T06:00:18.068Z,6.67
2023-04-15T06:03:19.907Z,6.67
2023-04-15T06:06:21.756Z,6.78
2023-04-15T06:09:23.431Z,6.92
2023-04-15T06:12:25.085Z,6.92
2023-04-15T06:15:26.719Z,7.34
2023-04-15T06:18:28.361Z,7.75
2023-04-15T06:21:30.235Z,7.41
2023-04-15T06:24:33.189Z,7.22
2023-04-15T06:27:34.889Z,7.90
2023-04-15T06:30:36.945Z,7.97
2023-04-15T06:33:39.680Z,7.92
2023-04-15T06:36:41.299Z,8.31
2023-04-15T06:39:43.614Z,9.88
2023-04-15T06:42:45.667Z,11.64
2023-04-15T06:45:47.406Z,12.46
2023-04-15T06:48:49.061Z,14.26
2023-04-15T06:51:51.641Z,15.20
2023-04-15T06:54:53.278Z,14.32
2023-04-15T06:57:54.997Z,12.83
2023-04-15T07:00:56.842Z,11.26
2023-04-15T07:03:58.556Z,10.12
2023-04-15T07:07:02.602Z,10.28
2023-04-15T07:10:05.486Z,12.83
2023-04-15T07:13:08.915Z,14.65
2023-04-15T07:16:10.747Z,15.18
2023-04-15T07:19:12.372Z,17.77
2023-04-15T07:22:14.017Z,19.52
2023-04-15T07:25:15.725Z,21.00
2023-04-15T07:28:17.415Z,20.72
2023-04-15T07:31:19.346Z,19.34
2023-04-15T07:34:21.129Z,21.12
2023-04-15T07:37:22.804Z,24.29
2023-04-15T07:40:24.487Z,24.79
2023-04-15T07:43:26.133Z,24.80
2023-04-15T07:46:28.530Z,26.62
2023-04-15T07:49:30.285Z,23.66
2023-04-15T07:52:32.482Z,21.39
2023-04-15T07:55:34.144Z,16.85
2023-04-15T07:58:36.111Z,16.29
2023-04-15T08:01:37.861Z,17.52
2023-04-15T08:04:39.601Z,16.23
2023-04-15T08:07:41.801Z,16.36
2023-04-15T08:10:43.524Z,16.98
2023-04-15T08:13:45.453Z,15.88
2023-04-15T08:16:47.078Z,13.58
2023-04-15T08:19:48.714Z,19.38
2023-04-15T08:22:52.282Z,22.83
2023-04-15T08:25:53.916Z,19.78
2023-04-15T08:28:55.674Z,20.13
2023-04-15T08:31:57.440Z,19.13
2023-04-15T08:34:59.276Z,20.37
2023-04-15T08:38:01.028Z,18.62
2023-04-15T08:41:31.258Z,18.09
2023-04-15T08:44:39.055Z,15.77
2023-04-15T08:47:41.168Z,16.19
2023-04-15T08:50:51.652Z,16.10
2023-04-15T08:54:02.677Z,15.86
2023-04-15T08:57:04.626Z,15.79
2023-04-15T09:00:07.152Z,16.32
2023-04-15T09:03:09.785Z,15.72
2023-04-15T09:06:11.892Z,16.38
2023-04-15T09:09:18.603Z,15.56
2023-04-15T09:12:20.339Z,16.48
2023-04-15T09:15:22.791Z,16.66
2023-04-15T09:18:32.036Z,15.84
2023-04-15T09:21:34.667Z,16.09
2023-04-15T09:24:39.029Z,15.50
2023-04-15T09:27:51.048Z,16.43
2023-04-15T09:30:57.520Z,14.81
2023-04-15T09:33:59.663Z,13.26
2023-04-15T09:37:01.611Z,13.67
2023-04-15T09:40:04.062Z,13.96
2023-04-15T09:43:06.815Z,15.34
2023-04-15T09:46:08.560Z,16.16
2023-04-15T09:49:11.350Z,17.83
2023-04-15T09:52:14.398Z,17.18
2023-04-15T09:55:18.580Z,18.54
2023-04-15T09:58:22.170Z,16.91
2023-04-15T10:01:23.957Z,15.45
2023-04-15T10:04:28.407Z,13.95
2023-04-15T10:07:30.911Z,13.28
2023-04-15T10:10:34.552Z,13.35
2023-04-15T10:13:37.447Z,12.93
2023-04-15T10:16:43.602Z,12.42
2023-04-15T10:19:46.793Z,12.56
2023-04-15T10:22:48.871Z,12.42
2023-04-15T10:25:54.442Z,13.02
2023-04-15T10:28:56.934Z,13.26
2023-04-15T10:32:00.011Z,12.72
2023-04-15T10:35:02.539Z,12.45
2023-04-15T10:38:47.290Z,12.06
2023-04-15T10:42:07.172Z,12.02
2023-04-15T10:45:17.822Z,13.11
2023-04-15T10:48:19.618Z,12.27
2023-04-15T10:51:30.505Z,13.10
2023-04-15T10:54:33.715Z,12.39
2023-04-15T10:57:39.332Z,12.38
2023-04-15T11:00:41.259Z,12.53
2023-04-15T11:03:43.598Z,12.41
2023-04-15T11:06:48.343Z,12.10
2023-04-15T11:09:49.965Z,11.14
2023-04-15T11:12:53.720Z,9.37
2023-04-15T11:15:58.945Z,7.84
2023-04-15T11:19:01.799Z,8.08
2023-04-15T11:22:08.381Z,8.35
2023-04-15T11:25:10.028Z,9.53
2023-04-15T11:28:13.188Z,10.30
2023-04-15T11:31:33.600Z,11.09
2023-04-15T11:34:36.273Z,10.81
2023-04-15T11:37:38.122Z,10.04
2023-04-15T11:40:41.006Z,9.72
2023-04-15T11:43:42.714Z,8.29
2023-04-15T11:46:45.618Z,8.11
2023-04-15T11:49:47.322Z,8.11
2023-04-15T11:52:55.079Z,8.54
2023-04-15T11:55:56.966Z,8.95
2023-04-15T11:58:59.857Z,9.63
2023-04-15T12:02:13.001Z,10.31
2023-04-15T12:05:14.759Z,10.46
2023-04-15T12:08:16.411Z,10.56
2023-04-15T12:11:19.199Z,11.06
2023-04-15T12:14:33.698Z,11.74
2023-04-15T12:17:51.902Z,12.55
2023-04-15T12:20:57.394Z,12.14
2023-04-15T12:24:04.336Z,12.11
2023-04-15T12:27:11.944Z,11.29
2023-04-15T12:30:13.779Z,11.43
2023-04-15T12:33:15.482Z,11.83
2023-04-15T12:36:17.394Z,11.94
2023-04-15T12:39:22.698Z,12.62
2023-04-15T12:42:24.361Z,12.03
2023-04-15T12:45:26.874Z,12.83
2023-04-15T12:48:29.578Z,12.10
2023-04-15T12:51:31.965Z,12.61
2023-04-15T12:54:34.665Z,12.78
2023-04-15T12:57:36.402Z,12.44
2023-04-15T13:00:38.637Z,12.39
2023-04-15T13:03:40.552Z,12.08
2023-04-15T13:06:43.264Z,12.31
2023-04-15T13:09:45.017Z,12.47
2023-04-15T13:12:48.045Z,12.38
2023-04-15T13:15:49.886Z,12.18
2023-04-15T13:18:51.812Z,12.70
2023-04-15T13:21:53.486Z,12.50
2023-04-15T13:24:55.182Z,12.20
2023-04-15T13:27:57.712Z,12.25
2023-04-15T13:31:00.436Z,12.18
2023-04-15T13:34:02.142Z,12.05
2023-04-15T13:37:10.034Z,12.00
2023-04-15T13:40:11.988Z,12.60
2023-04-15T13:43:13.668Z,12.50
2023-04-15T13:46:15.590Z,12.16
2023-04-15T13:49:17.315Z,12.04
2023-04-15T13:52:19.216Z,11.96
2023-04-15T13:55:23.749Z,12.32
2023-04-15T13:58:27.261Z,12.16
2023-04-15T14:01:29.738Z,12.71
2023-04-15T14:04:32.353Z,12.65
2023-04-15T14:07:34.347Z,12.65
2023-04-15T14:10:36.048Z,12.74
2023-04-15T14:13:37.943Z,12.88
2023-04-15T14:16:40.169Z,13.20
2023-04-15T14:19:41.963Z,13.22
2023-04-15T14:22:43.606Z,13.57
2023-04-15T14:25:47.927Z,13.15
2023-04-15T14:28:50.378Z,13.11
2023-04-15T14:32:07.195Z,13.57
2023-04-15T14:35:14.247Z,12.61
2023-04-15T14:38:16.086Z,13.34
2023-04-15T14:41:17.771Z,12.72
2023-04-15T14:44:19.435Z,12.74
2023-04-15T14:47:21.101Z,12.88
2023-04-15T14:50:23.163Z,12.46
2023-04-15T14:53:24.838Z,12.59
2023-04-15T14:56:27.334Z,12.35
2023-04-15T14:59:29.110Z,12.04
2023-04-15T15:02:39.042Z,12.21
2023-04-15T15:05:42.133Z,12.19
2023-04-15T15:08:44.125Z,11.45
2023-04-15T15:11:45.788Z,11.43
2023-04-15T15:14:47.834Z,11.74
2023-04-15T15:17:51.038Z,11.43
2023-04-15T15:20:52.723Z,11.24
2023-04-15T15:23:54.433Z,11.20
2023-04-15T15:26:57.301Z,11.46
2023-04-15T15:29:58.961Z,11.65
2023-04-15T15:33:00.777Z,11.33
2023-04-15T15:36:03.754Z,11.53
2023-04-15T15:39:05.940Z,11.52
2023-04-15T15:42:08.061Z,11.56
2023-04-15T15:45:10.287Z,11.54
2023-04-15T15:48:12.115Z,11.83
2023-04-15T15:51:13.995Z,11.60
2023-04-15T15:54:15.699Z,11.64
2023-04-15T15:57:17.502Z,11.72
2023-04-15T16:00:19.217Z,11.45
2023-04-15T16:03:21.076Z,11.41
2023-04-15T16:06:22.926Z,11.41
2023-04-15T16:09:24.606Z,11.47
2023-04-15T16:12:27.369Z,11.45
2023-04-15T16:15:29.298Z,11.65
2023-04-15T16:18:32.043Z,11.49
2023-04-15T16:21:35.518Z,11.67
2023-04-15T16:24:37.373Z,11.59
2023-04-15T16:30:44.049Z,10.98
2023-04-15T16:33:46.351Z,10.83
2023-04-15T16:36:48.303Z,10.84
2023-04-15T16:39:50.092Z,10.90
2023-04-15T16:42:51.918Z,10.81
2023-04-15T16:45:53.903Z,10.95
2023-04-15T16:48:57.011Z,10.82
2023-04-15T16:51:58.868Z,10.81
2023-04-15T16:55:00.623Z,10.83
2023-04-15T16:58:03.942Z,11.09
2023-04-15T17:01:06.820Z,10.80
2023-04-15T17:04:09.143Z,10.75
2023-04-15T17:07:11.831Z,10.96
2023-04-15T17:10:16.325Z,10.51
2023-04-15T17:13:17.999Z,10.34
2023-04-15T17:16:20.015Z,10.28
2023-04-15T17:19:22.257Z,10.49
2023-04-15T17:22:23.965Z,10.57
2023-04-15T17:25:25.704Z,10.52
2023-04-15T17:28:27.384Z,10.32
2023-04-15T17:31:30.544Z,10.52
2023-04-15T17:34:50.660Z,10.28
2023-04-15T17:37:52.860Z,9.95
2023-04-15T17:40:55.180Z,9.89
2023-04-15T17:43:57.162Z,10.06
2023-04-15T17:46:59.395Z,10.24
2023-04-15T17:50:01.595Z,10.16
2023-04-15T17:53:04.156Z,10.16
2023-04-15T17:56:06.088Z,10.26
2023-04-15T17:59:09.751Z,10.30
2023-04-15T18:02:15.555Z,10.34
2023-04-15T18:05:19.857Z,10.08
2023-04-15T18:08:21.868Z,10.16
2023-04-15T18:11:24.111Z,10.01
2023-04-15T18:14:34.106Z,10.01
2023-04-15T18:17:37.123Z,10.11
2023-04-15T18:20:39.998Z,10.09
2023-04-15T18:23:42.773Z,9.94
2023-04-15T18:26:47.558Z,9.93
2023-04-15T18:29:52.196Z,9.59
2023-04-15T18:32:54.081Z,9.29
2023-04-15T18:35:57.821Z,9.22
2023-04-15T18:39:00.279Z,9.04
2023-04-15T18:42:02.702Z,9.19
2023-04-15T18:45:05.474Z,9.35
2023-04-15T18:48:07.479Z,8.82
2023-04-15T18:51:09.603Z,8.61
2023-04-15T18:54:13.896Z,8.89
2023-04-15T18:57:20.421Z,8.88
2023-04-15T19:00:33.299Z,9.07
2023-04-15T19:03:35.255Z,9.51
2023-04-15T19:06:38.829Z,9.27
2023-04-15T19:09:41.621Z,9.16
2023-04-15T19:12:43.935Z,9.15
2023-04-15T19:15:46.227Z,9.28
2023-04-15T19:18:48.591Z,9.29
2023-04-15T19:21:51.419Z,9.50
2023-04-15T19:24:53.888Z,9.50
2023-04-15T19:27:57.920Z,9.17
2023-04-15T19:34:18.069Z,9.22
2023-04-15T19:37:20.546Z,9.33
2023-04-15T19:40:23.131Z,9.40
2023-04-15T19:43:25.657Z,9.42
2023-04-15T19:46:30.323Z,9.38
2023-04-15T19:49:32.306Z,9.36
2023-04-15T19:52:35.487Z,9.31
2023-04-15T19:55:38.204Z,9.37
2023-04-15T19:58:39.913Z,9.16
2023-04-15T20:01:44.988Z,8.80
2023-04-15T20:04:47.898Z,8.39
2023-04-15T20:07:52.309Z,8.34
2023-04-15T20:10:55.256Z,8.33
2023-04-15T20:13:57.878Z,8.20
2023-04-15T20:17:01.277Z,8.24
2023-04-15T20:20:05.789Z,8.23
2023-04-15T20:23:07.732Z,8.11
2023-04-15T20:26:09.877Z,8.56
2023-04-15T20:29:13.893Z,8.59
2023-04-15T20:32:15.888Z,8.54
2023-04-15T20:35:19.844Z,8.38
2023-04-15T20:38:22.476Z,8.60
2023-04-15T20:41:24.724Z,8.23
2023-04-15T20:44:26.721Z,7.96
2023-04-15T20:47:28.915Z,7.85
2023-04-15T20:50:31.489Z,7.70
2023-04-15T20:53:34.607Z,7.70
2023-04-15T20:56:36.721Z,7.81
2023-04-15T20:59:38.479Z,7.66
2023-04-15T21:02:40.980Z,7.55
2023-04-15T21:05:43.725Z,7.58
2023-04-15T21:08:45.778Z,7.62
2023-04-15T21:12:00.388Z,7.56
2023-04-15T21:15:02.531Z,7.57
2023-04-15T21:18:04.392Z,7.52
2023-04-15T21:21:06.153Z,7.51
2023-04-15T21:24:07.957Z,7.57
2023-04-15T21:27:09.814Z,7.59
2023-04-15T21:30:12.338Z,7.54
2023-04-15T21:33:13.990Z,7.54
2023-04-15T21:36:15.645Z,7.52
2023-04-15T21:39:17.394Z,7.48
2023-04-15T21:42:19.175Z,7.50
2023-04-15T21:45:20.838Z,7.32
2023-04-15T21:48:22.618Z,7.56
2023-04-15T21:51:24.382Z,7.44
2023-04-15T21:54:26.190Z,7.27
2023-04-15T21:57:27.872Z,7.70
2023-04-15T22:00:29.734Z,7.58
2023-04-15T22:03:34.293Z,7.29
2023-04-15T22:06:36.457Z,7.37
2023-04-15T22:09:38.079Z,7.48
2023-04-15T22:12:42.829Z,7.64
2023-04-15T22:15:44.533Z,7.63
2023-04-15T22:18:46.184Z,7.53
2023-04-15T22:21:47.825Z,7.46
2023-04-15T22:24:49.507Z,7.46
2023-04-15T22:27:51.208Z,7.49
2023-04-15T22:30:54.703Z,7.47
2023-04-15T22:33:56.402Z,7.49
2023-04-15T22:36:58.097Z,7.04
2023-04-15T22:39:59.877Z,7.00
2023-04-15T22:43:01.617Z,7.33
2023-04-15T22:46:03.283Z,7.48
2023-04-15T22:49:08.394Z,7.44
2023-04-15T22:52:14.521Z,7.57
2023-04-15T22:55:22.024Z,7.58
2023-04-15T22:58:23.791Z,7.67
2023-04-15T23:01:25.553Z,7.45
2023-04-15T23:04:28.295Z,7.54
2023-04-15T23:07:30.193Z,7.71
2023-04-15T23:10:31.867Z,7.82
2023-04-15T23:13:35.694Z,7.90
2023-04-15T23:16:37.428Z,7.96
2023-04-15T23:19:39.374Z,7.97
2023-04-15T23:22:42.083Z,8.07
2023-04-15T23:25:43.772Z,8.11
2023-04-15T23:28:45.398Z,8.10
2023-04-15T23:31:47.246Z,8.02
2023-04-15T23:34:48.903Z,8.17
2023-04-15T23:37:50.858Z,8.16
2023-04-15T23:40:52.673Z,8.14
2023-04-15T23:43:54.334Z,8.02
2023-04-15T23:46:56.050Z,7.47
2023-04-15T23:49:57.887Z,7.25
2023-04-15T23:52:59.525Z,7.80
2023-04-15T23:56:01.498Z,7.87
2023-04-15T23:59:03.122Z,7.66
